LFMV/AVN METAR and TAF weather

Enter ICAO airport designator
Station Type Date Time Source
LFMV METAR 2018/12/13 23:00 UTC NOAA

LFMV 132300Z AUTO 36004KT 5000 -RA BR BKN064/// OVC074/// ///TCU 04/02 Q1011


Station Type Date Time Source
LFMV Decoded METAR 2018/12/13 23:00 UTC NOAA

Station name not available
Dec 13, 2018 - 06:00 PM EST / 2018.12.13 2300 UTC
Wind: from the N (360 degrees) at 5 MPH (4 KT):0
Visibility: 3 mile(s):0
Sky conditions: overcast
Weather: light rain; mist; Towering cumulus clouds observed
Temperature: 39 F (4 C)
Dew Point: 35 F (2 C)
Relative Humidity: 86%
Pressure (altimeter): 29.85 in. Hg (1011 hPa)
ob: LFMV 132300Z AUTO 36004KT 5000 -RA BR BKN064/// OVC074/// ///TCU 04/02 Q1011
cycle: 23

Station Type Date Time Source
LFMV TAF 2018/12/13 20:00 UTC NOAA

TAF
AMD LFMV 132000Z 1320/1415 CNL


Example: see airport list